SAS4627 EHAM-EDDF
Flight info
| Callsign | SAS4627 |
|---|---|
| Flight time | N/A |
| Altitude | 35000 |
| Route | EDUPO Z739 MISGO DCT DIXAT DIXAT2C |
| Aircraft | A320/M-SDE3FGHIRWY/LB1 |
Departure
| Time | 2026-04-28 14:07 |
|---|---|
| Airport | Amsterdam Airport Schiphol (EHAM) |
Arrival
| Time | N/A |
|---|---|
| Airport | Frankfurt Main Airport (EDDF) |
| Time | Latitude | Longitude | Altitude | Speed | Heading |
|---|---|---|---|---|---|
| 2026-04-28 13:43 | 52.30714 | 4.77216 | 6 ft | 0 kts | 4° |
| 2026-04-28 13:43 | 52.30713 | 4.77216 | 6 ft | 0 kts | 4° |
| 2026-04-28 13:58 | 52.30702 | 4.77215 | 6 ft | 2 kts | 3° |
| 2026-04-28 13:58 | 52.30684 | 4.77214 | 6 ft | 2 kts | 3° |
| 2026-04-28 13:58 | 52.30668 | 4.77212 | 7 ft | 2 kts | 4° |
| 2026-04-28 13:58 | 52.30653 | 4.77202 | 8 ft | 2 kts | 72° |
| 2026-04-28 13:59 | 52.30651 | 4.77192 | 7 ft | 0 kts | 95° |
| 2026-04-28 14:00 | 52.30651 | 4.77193 | 6 ft | 0 kts | 95° |
| 2026-04-28 14:00 | 52.30650 | 4.77207 | 6 ft | 2 kts | 95° |
| 2026-04-28 14:00 | 52.30648 | 4.77240 | 7 ft | 4 kts | 95° |
| 2026-04-28 14:01 | 52.30646 | 4.77288 | 8 ft | 5 kts | 95° |
| 2026-04-28 14:01 | 52.30644 | 4.77346 | 9 ft | 6 kts | 92° |
| 2026-04-28 14:01 | 52.30643 | 4.77464 | 12 ft | 13 kts | 90° |
| 2026-04-28 14:01 | 52.30685 | 4.77591 | 13 ft | 14 kts | 21° |
| 2026-04-28 14:02 | 52.30793 | 4.77600 | 13 ft | 17 kts | 0° |
| 2026-04-28 14:02 | 52.30920 | 4.77613 | 12 ft | 20 kts | 4° |
| 2026-04-28 14:02 | 52.31063 | 4.77626 | 13 ft | 21 kts | 2° |
| 2026-04-28 14:02 | 52.31221 | 4.77641 | 13 ft | 24 kts | 4° |
| 2026-04-28 14:03 | 52.31387 | 4.77654 | 16 ft | 24 kts | 1° |
| 2026-04-28 14:03 | 52.31536 | 4.77521 | 12 ft | 27 kts | 310° |
| 2026-04-28 14:03 | 52.31541 | 4.77231 | 8 ft | 30 kts | 235° |
| 2026-04-28 14:03 | 52.31482 | 4.76920 | 8 ft | 30 kts | 267° |
| 2026-04-28 14:04 | 52.31470 | 4.76573 | 12 ft | 31 kts | 266° |
| 2026-04-28 14:04 | 52.31457 | 4.76219 | 14 ft | 33 kts | 266° |
| 2026-04-28 14:04 | 52.31443 | 4.75829 | 12 ft | 36 kts | 267° |
| 2026-04-28 14:04 | 52.31428 | 4.75400 | 10 ft | 39 kts | 265° |
| 2026-04-28 14:05 | 52.31411 | 4.74951 | 10 ft | 40 kts | 267° |
| 2026-04-28 14:05 | 52.31476 | 4.74664 | 16 ft | 27 kts | 351° |
| 2026-04-28 14:05 | 52.31582 | 4.74660 | 18 ft | 0 kts | 4° |
| 2026-04-28 14:06 | 52.31583 | 4.74660 | 18 ft | 1 kts | 4° |
| 2026-04-28 14:06 | 52.31610 | 4.74662 | 19 ft | 9 kts | 4° |
| 2026-04-28 14:06 | 52.31671 | 4.74770 | 19 ft | 20 kts | 83° |
| 2026-04-28 14:06 | 52.31689 | 4.75300 | 15 ft | 81 kts | 86° |
| 2026-04-28 14:07 | 52.31731 | 4.76555 | 17 ft | 136 kts | 87° |
| 2026-04-28 14:07 | 52.31784 | 4.78258 | 335 ft | 158 kts | 86° |
| 2026-04-28 14:07 | 52.31848 | 4.80150 | 810 ft | 174 kts | 82° |
| 2026-04-28 14:07 | 52.31884 | 4.82260 | 1296 ft | 197 kts | 88° |
| 2026-04-28 14:08 | 52.31796 | 4.84636 | 1841 ft | 219 kts | 90° |
| 2026-04-28 14:08 | 52.31641 | 4.87147 | 2723 ft | 227 kts | 95° |
| 2026-04-28 14:08 | 52.31252 | 4.89711 | 3675 ft | 236 kts | 110° |
| 2026-04-28 14:08 | 52.30553 | 4.92192 | 4647 ft | 243 kts | 112° |
| 2026-04-28 14:09 | 52.29851 | 4.94715 | 5523 ft | 248 kts | 109° |
| 2026-04-28 14:09 | 52.29295 | 4.97384 | 6463 ft | 247 kts | 105° |
| 2026-04-28 14:09 | 52.28817 | 5.00088 | 7383 ft | 249 kts | 104° |
| 2026-04-28 14:09 | 52.28357 | 5.02835 | 8313 ft | 252 kts | 104° |
| 2026-04-28 14:10 | 52.27841 | 5.05601 | 9187 ft | 257 kts | 108° |
| 2026-04-28 14:10 | 52.27251 | 5.08345 | 10065 ft | 260 kts | 107° |
| 2026-04-28 14:10 | 52.26693 | 5.11168 | 10900 ft | 262 kts | 103° |
| 2026-04-28 14:10 | 52.26183 | 5.14028 | 11771 ft | 261 kts | 105° |
| 2026-04-28 14:11 | 52.25716 | 5.16854 | 12704 ft | 258 kts | 103° |
| 2026-04-28 14:11 | 52.25272 | 5.19679 | 13691 ft | 254 kts | 108° |
| 2026-04-28 14:11 | 52.24427 | 5.22199 | 14525 ft | 258 kts | 123° |
| 2026-04-28 14:11 | 52.23327 | 5.24687 | 14735 ft | 281 kts | 123° |
| 2026-04-28 14:12 | 52.22132 | 5.27323 | 14908 ft | 304 kts | 124° |
| 2026-04-28 14:12 | 52.20810 | 5.30203 | 15059 ft | 327 kts | 125° |
| 2026-04-28 14:12 | 52.19415 | 5.33224 | 15508 ft | 337 kts | 125° |
| 2026-04-28 14:12 | 52.17999 | 5.36281 | 16009 ft | 345 kts | 125° |
| 2026-04-28 14:13 | 52.16532 | 5.39450 | 16530 ft | 353 kts | 124° |
| 2026-04-28 14:13 | 52.15037 | 5.42684 | 17051 ft | 360 kts | 126° |
| 2026-04-28 14:13 | 52.13515 | 5.45985 | 17588 ft | 367 kts | 125° |
| 2026-04-28 14:13 | 52.11984 | 5.49310 | 18132 ft | 373 kts | 125° |
| 2026-04-28 14:14 | 52.10409 | 5.52728 | 18654 ft | 379 kts | 125° |
| 2026-04-28 14:14 | 52.08818 | 5.56175 | 19132 ft | 383 kts | 126° |
| 2026-04-28 14:14 | 52.07202 | 5.59661 | 19622 ft | 386 kts | 125° |
| 2026-04-28 14:14 | 52.05593 | 5.63131 | 20103 ft | 389 kts | 126° |
| 2026-04-28 14:15 | 52.03953 | 5.66667 | 20605 ft | 393 kts | 125° |
| 2026-04-28 14:15 | 52.02301 | 5.70224 | 21116 ft | 395 kts | 125° |
| 2026-04-28 14:15 | 52.00641 | 5.73790 | 21647 ft | 397 kts | 126° |
| 2026-04-28 14:15 | 51.98962 | 5.77386 | 22175 ft | 400 kts | 125° |
| 2026-04-28 14:16 | 51.97300 | 5.80941 | 22831 ft | 400 kts | 126° |
| 2026-04-28 14:16 | 51.95620 | 5.84532 | 23524 ft | 399 kts | 125° |
| 2026-04-28 14:16 | 51.93939 | 5.88122 | 24150 ft | 398 kts | 125° |
| 2026-04-28 14:16 | 51.92258 | 5.91703 | 24746 ft | 397 kts | 125° |
| 2026-04-28 14:17 | 51.90604 | 5.95226 | 25338 ft | 396 kts | 125° |
| 2026-04-28 14:17 | 51.88937 | 5.98770 | 25968 ft | 394 kts | 127° |
| 2026-04-28 14:17 | 51.87277 | 6.02293 | 26600 ft | 392 kts | 126° |
| 2026-04-28 14:17 | 51.85634 | 6.05770 | 27111 ft | 395 kts | 127° |
| 2026-04-28 14:18 | 51.83880 | 6.09283 | 27231 ft | 407 kts | 129° |
| 2026-04-28 14:18 | 51.82006 | 6.12794 | 27365 ft | 417 kts | 130° |
| 2026-04-28 14:18 | 51.80045 | 6.16325 | 27498 ft | 426 kts | 130° |
| 2026-04-28 14:18 | 51.78041 | 6.19877 | 27632 ft | 435 kts | 131° |
| 2026-04-28 14:19 | 51.75983 | 6.23534 | 27782 ft | 442 kts | 130° |
| 2026-04-28 14:19 | 51.73908 | 6.27255 | 28055 ft | 446 kts | 130° |
| 2026-04-28 14:19 | 51.71860 | 6.30963 | 28393 ft | 449 kts | 131° |
| 2026-04-28 14:19 | 51.69773 | 6.34766 | 28661 ft | 453 kts | 130° |